createdAt,value
2019-02-25T00:00:35.399Z,4.73
2019-02-25T00:01:35.389Z,4.75
2019-02-25T00:02:35.408Z,4.71
2019-02-25T00:03:35.378Z,4.70
2019-02-25T00:04:35.357Z,4.66
2019-02-25T00:05:35.514Z,4.67
2019-02-25T00:06:35.363Z,4.67
2019-02-25T00:07:35.333Z,4.68
2019-02-25T00:08:35.417Z,4.66
2019-02-25T00:09:35.329Z,4.60
2019-02-25T00:10:35.286Z,4.67
2019-02-25T00:11:35.308Z,4.67
2019-02-25T00:12:35.267Z,4.68
2019-02-25T00:13:35.257Z,4.63
2019-02-25T00:14:35.262Z,4.67
2019-02-25T00:15:35.231Z,4.66
2019-02-25T00:16:35.234Z,4.67
2019-02-25T00:17:35.205Z,4.67
2019-02-25T00:18:35.195Z,4.63
2019-02-25T00:19:35.205Z,4.71
2019-02-25T00:20:35.195Z,4.66
2019-02-25T00:21:35.164Z,4.62
2019-02-25T00:22:35.181Z,4.63
2019-02-25T00:23:35.144Z,4.63
2019-02-25T00:24:35.155Z,4.62
2019-02-25T00:25:35.122Z,4.58
2019-02-25T00:26:35.114Z,4.55
2019-02-25T00:27:35.101Z,4.58
2019-02-25T00:28:35.092Z,4.52
2019-02-25T00:29:35.154Z,4.44
2019-02-25T00:30:35.088Z,4.48
2019-02-25T00:31:35.084Z,4.32
2019-02-25T00:32:35.046Z,4.38
2019-02-25T00:33:35.047Z,4.38
2019-02-25T00:34:35.020Z,4.38
2019-02-25T00:35:35.012Z,4.34
2019-02-25T00:36:35.025Z,4.13
2019-02-25T00:37:35.034Z,4.26
2019-02-25T00:38:34.972Z,4.19
2019-02-25T00:39:34.969Z,4.17
2019-02-25T00:40:34.964Z,4.13
2019-02-25T00:41:34.967Z,4.12
2019-02-25T00:42:34.965Z,4.08
2019-02-25T00:43:34.925Z,4.02
2019-02-25T00:44:34.916Z,4.05
2019-02-25T00:45:34.900Z,4.01
2019-02-25T00:46:34.885Z,3.96
2019-02-25T00:47:34.879Z,4.01
2019-02-25T00:48:35.001Z,3.95
2019-02-25T00:49:34.856Z,3.91
2019-02-25T00:50:34.842Z,3.91
2019-02-25T00:51:34.857Z,3.98
2019-02-25T00:52:34.818Z,3.91
2019-02-25T00:53:34.840Z,3.95
2019-02-25T00:54:34.795Z,4.01
2019-02-25T00:55:34.783Z,3.91
2019-02-25T00:56:34.774Z,3.92
2019-02-25T00:57:34.763Z,4.01
2019-02-25T00:58:34.774Z,3.95
2019-02-25T00:59:34.771Z,3.91
2019-02-25T01:00:34.762Z,3.95
2019-02-25T01:01:34.719Z,3.87
2019-02-25T01:02:34.714Z,3.87
2019-02-25T01:03:34.713Z,3.91
2019-02-25T01:04:34.693Z,3.88
2019-02-25T01:05:34.702Z,3.84
2019-02-25T01:06:34.668Z,3.87
2019-02-25T01:07:34.652Z,3.86
2019-02-25T01:08:34.651Z,3.87
2019-02-25T01:09:35.609Z,3.94
2019-02-25T01:10:34.626Z,3.99
2019-02-25T01:11:34.612Z,3.95
2019-02-25T01:12:34.723Z,3.92
2019-02-25T01:13:34.589Z,3.99
2019-02-25T01:14:34.581Z,4.02
2019-02-25T01:15:34.585Z,4.04
2019-02-25T01:16:34.563Z,4.04
2019-02-25T01:17:34.572Z,4.02
2019-02-25T01:18:34.553Z,3.99
2019-02-25T01:19:34.527Z,4.04
2019-02-25T01:20:34.518Z,4.02
2019-02-25T01:21:34.525Z,4.01
2019-02-25T01:22:34.487Z,4.05
2019-02-25T01:23:34.487Z,4.08
2019-02-25T01:24:34.474Z,4.04
2019-02-25T01:25:34.455Z,3.98
2019-02-25T01:26:34.441Z,3.96
2019-02-25T01:27:34.455Z,3.91
2019-02-25T01:28:34.487Z,3.95
2019-02-25T01:29:34.439Z,3.94
2019-02-25T01:30:34.402Z,3.96
2019-02-25T01:31:34.398Z,3.98
2019-02-25T01:32:34.384Z,3.95
2019-02-25T01:33:34.371Z,3.95
2019-02-25T01:34:34.384Z,3.98
2019-02-25T01:35:34.354Z,3.91
2019-02-25T01:36:34.332Z,3.88
2019-02-25T01:37:34.327Z,3.88
2019-02-25T01:38:34.313Z,3.88
2019-02-25T01:39:34.323Z,3.91
2019-02-25T01:40:34.287Z,3.91
2019-02-25T01:41:34.280Z,3.92
2019-02-25T01:42:34.279Z,3.88
2019-02-25T01:43:34.267Z,3.91
2019-02-25T01:44:34.357Z,3.84
2019-02-25T01:45:34.263Z,3.86
2019-02-25T01:46:34.223Z,3.91
2019-02-25T01:47:34.222Z,3.87
2019-02-25T01:48:34.202Z,3.86
2019-02-25T01:49:34.200Z,3.96
2019-02-25T01:50:34.199Z,3.95
2019-02-25T01:51:34.193Z,3.99
2019-02-25T01:52:34.156Z,3.99
2019-02-25T01:53:34.147Z,4.04
2019-02-25T01:54:34.138Z,3.94
2019-02-25T01:55:34.131Z,3.88
2019-02-25T01:56:34.165Z,3.83
2019-02-25T01:57:34.101Z,3.86
2019-02-25T01:58:34.094Z,3.86
2019-02-25T01:59:34.081Z,3.80
2019-02-25T02:00:34.067Z,3.74
2019-02-25T02:01:34.086Z,3.81
2019-02-25T02:02:34.047Z,3.69
2019-02-25T02:03:34.048Z,3.74
2019-02-25T02:04:34.037Z,3.69
2019-02-25T02:05:34.021Z,3.73
2019-02-25T02:06:34.006Z,3.76
2019-02-25T02:07:34.021Z,3.68
2019-02-25T02:08:34.112Z,3.69
2019-02-25T02:09:33.989Z,3.60
2019-02-25T02:10:33.957Z,3.62
2019-02-25T02:11:33.963Z,3.63
2019-02-25T02:12:33.940Z,3.53
2019-02-25T02:13:33.950Z,3.60
2019-02-25T02:14:33.929Z,3.58
2019-02-25T02:15:33.907Z,3.58
2019-02-25T02:16:33.893Z,3.53
2019-02-25T02:17:33.891Z,3.58
2019-02-25T02:18:33.868Z,3.55
2019-02-25T02:19:33.877Z,3.48
2019-02-25T02:20:33.851Z,3.50
2019-02-25T02:21:33.860Z,3.45
2019-02-25T02:22:33.838Z,3.53
2019-02-25T02:23:33.826Z,3.50
2019-02-25T02:24:33.996Z,3.50
2019-02-25T02:25:33.824Z,3.53
2019-02-25T02:26:33.806Z,3.60
2019-02-25T02:27:33.848Z,3.56
2019-02-25T02:28:33.781Z,3.56
2019-02-25T02:29:33.748Z,3.55
2019-02-25T02:30:33.747Z,3.62
2019-02-25T02:31:33.728Z,3.63
2019-02-25T02:32:33.738Z,3.59
2019-02-25T02:33:33.714Z,3.60
2019-02-25T02:34:33.694Z,3.73
2019-02-25T02:35:33.688Z,3.65
2019-02-25T02:36:33.691Z,3.58
2019-02-25T02:37:33.694Z,3.66
2019-02-25T02:38:33.660Z,3.56
2019-02-25T02:39:33.644Z,3.60
2019-02-25T02:40:33.743Z,3.65
2019-02-25T02:41:33.638Z,3.60
2019-02-25T02:42:33.612Z,3.53
2019-02-25T02:43:33.593Z,3.56
2019-02-25T02:44:33.585Z,3.45
2019-02-25T02:45:33.717Z,3.47
2019-02-25T02:46:33.619Z,3.40
2019-02-25T02:47:33.551Z,3.34
2019-02-25T02:48:33.568Z,3.37
2019-02-25T02:49:33.538Z,3.32
2019-02-25T02:50:33.526Z,3.45
2019-02-25T02:51:33.506Z,3.37
2019-02-25T02:52:33.528Z,3.48
2019-02-25T02:53:33.488Z,3.40
2019-02-25T02:54:33.475Z,3.36
2019-02-25T02:55:33.469Z,3.42
2019-02-25T02:56:33.452Z,3.32
2019-02-25T02:57:33.473Z,3.32
2019-02-25T02:58:33.431Z,3.29
2019-02-25T02:59:33.428Z,3.22
2019-02-25T03:00:33.415Z,3.26
2019-02-25T03:01:33.394Z,3.31
2019-02-25T03:02:33.385Z,3.26
2019-02-25T03:03:33.398Z,3.25
2019-02-25T03:04:34.126Z,3.25
2019-02-25T03:05:33.361Z,3.29
2019-02-25T03:06:33.343Z,3.23
2019-02-25T03:07:33.336Z,3.31
2019-02-25T03:08:33.363Z,3.26
2019-02-25T03:09:33.337Z,3.26
2019-02-25T03:10:33.302Z,3.23
2019-02-25T03:11:33.285Z,3.23
2019-02-25T03:12:33.278Z,3.22
2019-02-25T03:13:33.261Z,3.18
2019-02-25T03:14:33.270Z,3.19
2019-02-25T03:15:33.241Z,3.19
2019-02-25T03:16:33.234Z,3.14
2019-02-25T03:17:33.229Z,3.11
2019-02-25T03:18:33.264Z,3.11
2019-02-25T03:19:33.488Z,3.23
2019-02-25T03:20:33.279Z,3.18
2019-02-25T03:21:33.180Z,3.18
2019-02-25T03:22:33.166Z,3.11
2019-02-25T03:23:33.248Z,3.14
2019-02-25T03:24:33.161Z,3.19
2019-02-25T03:25:33.133Z,3.29
2019-02-25T03:26:33.134Z,3.16
2019-02-25T03:27:33.105Z,3.23
2019-02-25T03:28:33.128Z,3.28
2019-02-25T03:29:33.099Z,3.25
2019-02-25T03:30:33.134Z,3.29
2019-02-25T03:31:33.109Z,3.21
2019-02-25T03:32:33.055Z,3.22
2019-02-25T03:33:33.054Z,3.28
2019-02-25T03:34:33.029Z,3.16
2019-02-25T03:35:33.019Z,3.26
2019-02-25T03:36:33.037Z,3.18
2019-02-25T03:37:33.002Z,3.11
2019-02-25T03:38:32.990Z,3.26
2019-02-25T03:39:32.975Z,3.23
2019-02-25T03:40:32.967Z,3.21
2019-02-25T03:41:32.951Z,3.23
2019-02-25T03:42:32.971Z,3.18
2019-02-25T03:43:32.932Z,3.03
2019-02-25T03:44:32.938Z,3.08
2019-02-25T03:45:32.906Z,2.93
2019-02-25T03:46:32.896Z,3.08
2019-02-25T03:47:32.908Z,3.00
2019-02-25T03:48:32.899Z,3.01
2019-02-25T03:49:32.872Z,2.98
2019-02-25T03:50:32.860Z,2.98
2019-02-25T03:51:32.849Z,2.89
2019-02-25T03:52:32.834Z,2.92
2019-02-25T03:53:32.851Z,2.87
2019-02-25T03:54:32.804Z,3.00
2019-02-25T03:55:32.800Z,2.97
2019-02-25T03:56:32.785Z,2.93
2019-02-25T03:57:32.776Z,2.93
2019-02-25T03:58:32.784Z,2.90
2019-02-25T03:59:32.783Z,2.86
2019-02-25T04:00:32.746Z,2.82
2019-02-25T04:01:32.744Z,2.87
2019-02-25T04:02:32.719Z,2.92
2019-02-25T04:03:32.804Z,2.87
2019-02-25T04:04:32.770Z,2.87
2019-02-25T04:05:32.682Z,2.95
2019-02-25T04:06:32.703Z,2.92
2019-02-25T04:07:32.666Z,3.00
2019-02-25T04:08:32.655Z,3.00
2019-02-25T04:09:32.642Z,2.90
2019-02-25T04:10:32.651Z,2.90
2019-02-25T04:11:32.622Z,2.90
2019-02-25T04:12:32.610Z,2.89
2019-02-25T04:13:32.614Z,2.93
2019-02-25T04:14:32.635Z,2.97
2019-02-25T04:15:32.602Z,2.83
2019-02-25T04:16:32.567Z,2.87
2019-02-25T04:17:32.551Z,2.85
2019-02-25T04:18:32.547Z,2.85
2019-02-25T04:19:32.536Z,2.90
2019-02-25T04:20:32.623Z,2.89
2019-02-25T04:21:32.530Z,2.85
2019-02-25T04:22:32.500Z,2.85
2019-02-25T04:23:32.487Z,2.82
2019-02-25T04:24:32.479Z,2.80
2019-02-25T04:25:32.497Z,2.80
2019-02-25T04:26:32.482Z,2.86
2019-02-25T04:27:32.450Z,2.83
2019-02-25T04:28:32.454Z,2.83
2019-02-25T04:29:32.423Z,2.77
2019-02-25T04:30:32.480Z,2.77
2019-02-25T04:31:32.422Z,2.82
2019-02-25T04:32:32.393Z,2.74
2019-02-25T04:33:32.470Z,2.69
2019-02-25T04:34:32.370Z,2.74
2019-02-25T04:35:32.354Z,2.75
2019-02-25T04:36:32.425Z,2.75
2019-02-25T04:37:32.338Z,2.65
2019-02-25T04:38:32.323Z,2.64
2019-02-25T04:39:32.326Z,2.72
2019-02-25T04:40:32.301Z,2.62
2019-02-25T04:41:32.299Z,2.61
2019-02-25T04:42:32.308Z,2.64
2019-02-25T04:43:32.290Z,2.62
2019-02-25T04:44:32.263Z,2.71
2019-02-25T04:45:32.250Z,2.53
2019-02-25T04:46:32.242Z,2.64
2019-02-25T04:47:32.228Z,2.50
2019-02-25T04:48:32.212Z,2.39
2019-02-25T04:49:32.248Z,2.43
2019-02-25T04:50:32.199Z,2.54
2019-02-25T04:51:32.180Z,2.54
2019-02-25T04:52:32.174Z,2.46
2019-02-25T04:53:32.157Z,2.57
2019-02-25T04:54:32.172Z,2.60
2019-02-25T04:55:32.137Z,2.51
2019-02-25T04:56:32.128Z,2.64
2019-02-25T04:57:33.132Z,2.57
2019-02-25T04:58:32.147Z,2.57
2019-02-25T04:59:32.118Z,2.69
2019-02-25T05:00:32.138Z,2.65
2019-02-25T05:01:32.107Z,2.62
2019-02-25T05:02:32.058Z,2.60
2019-02-25T05:03:32.085Z,2.49
2019-02-25T05:04:32.035Z,2.54
2019-02-25T05:05:32.056Z,2.62
2019-02-25T05:06:32.014Z,2.53
2019-02-25T05:07:32.011Z,2.64
2019-02-25T05:08:32.018Z,2.64
2019-02-25T05:09:32.017Z,2.68
2019-02-25T05:10:31.970Z,2.61
2019-02-25T05:11:31.967Z,2.68
2019-02-25T05:12:31.959Z,2.62
2019-02-25T05:13:31.943Z,2.68
2019-02-25T05:14:31.958Z,2.65
2019-02-25T05:15:31.941Z,2.62
2019-02-25T05:16:32.052Z,2.64
2019-02-25T05:17:31.900Z,2.56
2019-02-25T05:18:31.883Z,2.54
2019-02-25T05:19:31.938Z,2.54
2019-02-25T05:20:31.860Z,2.56
2019-02-25T05:21:31.872Z,2.60
2019-02-25T05:22:31.917Z,2.42
2019-02-25T05:23:31.843Z,2.51
2019-02-25T05:24:31.818Z,2.46
2019-02-25T05:25:31.808Z,2.47
2019-02-25T05:26:31.823Z,2.43
2019-02-25T05:27:32.213Z,2.47
2019-02-25T05:28:31.772Z,2.47
2019-02-25T05:29:31.769Z,2.44
2019-02-25T05:30:31.879Z,2.38
2019-02-25T05:31:31.783Z,2.42
2019-02-25T05:32:32.649Z,2.39
2019-02-25T05:33:31.718Z,2.35
2019-02-25T05:34:31.724Z,2.38
2019-02-25T05:35:31.723Z,2.36
2019-02-25T05:36:31.800Z,2.38
2019-02-25T05:37:31.727Z,2.29
2019-02-25T05:38:31.668Z,2.31
2019-02-25T05:39:31.741Z,2.36
2019-02-25T05:40:31.690Z,2.35
2019-02-25T05:41:32.434Z,2.38
2019-02-25T05:42:32.111Z,2.43
2019-02-25T05:43:31.736Z,2.36
2019-02-25T05:44:31.626Z,2.29
2019-02-25T05:45:31.625Z,2.29
2019-02-25T05:46:31.591Z,2.29
2019-02-25T05:47:31.573Z,2.17
2019-02-25T05:48:31.559Z,2.17
2019-02-25T05:49:31.539Z,2.14
2019-02-25T05:50:31.560Z,2.14
2019-02-25T05:51:31.525Z,2.11
2019-02-25T05:52:31.513Z,2.17
2019-02-25T05:53:31.527Z,2.14
2019-02-25T05:54:31.515Z,2.14
2019-02-25T05:55:31.482Z,2.08
2019-02-25T05:56:31.466Z,2.10
2019-02-25T05:57:31.454Z,2.10
2019-02-25T05:58:31.440Z,2.17
2019-02-25T05:59:31.526Z,2.11
2019-02-25T06:00:31.465Z,2.08
2019-02-25T06:01:31.425Z,2.13
2019-02-25T06:02:31.404Z,2.08
2019-02-25T06:03:31.388Z,1.97
2019-02-25T06:04:31.378Z,2.02
2019-02-25T06:05:31.369Z,2.00
2019-02-25T06:06:31.375Z,2.00
2019-02-25T06:07:31.348Z,1.99
2019-02-25T06:08:31.348Z,1.97
2019-02-25T06:09:31.347Z,2.07
2019-02-25T06:10:31.318Z,1.97
2019-02-25T06:11:31.305Z,1.99
2019-02-25T06:12:31.293Z,2.06
2019-02-25T06:13:31.292Z,1.99
2019-02-25T06:14:31.295Z,1.99
2019-02-25T06:15:31.342Z,2.02
2019-02-25T06:16:31.244Z,1.88
2019-02-25T06:17:31.240Z,1.95
2019-02-25T06:18:31.228Z,1.94
2019-02-25T06:19:31.220Z,1.97
2019-02-25T06:20:31.234Z,2.00
2019-02-25T06:21:31.192Z,1.94
2019-02-25T06:22:31.185Z,2.00
2019-02-25T06:23:31.266Z,1.99
2019-02-25T06:24:31.158Z,1.97
2019-02-25T06:25:31.172Z,1.85
2019-02-25T06:26:31.212Z,1.88
2019-02-25T06:27:31.146Z,1.88
2019-02-25T06:28:31.123Z,1.81
2019-02-25T06:29:31.121Z,1.80
2019-02-25T06:30:31.096Z,1.92
2019-02-25T06:31:31.108Z,1.84
2019-02-25T06:32:31.074Z,1.88
2019-02-25T06:33:31.065Z,1.85
2019-02-25T06:34:31.047Z,1.80
2019-02-25T06:35:31.036Z,1.85
2019-02-25T06:36:31.026Z,1.80
2019-02-25T06:37:31.045Z,1.91
2019-02-25T06:38:31.028Z,1.81
2019-02-25T06:39:31.117Z,1.85
2019-02-25T06:40:30.985Z,1.85
2019-02-25T06:41:30.971Z,1.76
2019-02-25T06:42:30.986Z,1.76
2019-02-25T06:43:30.980Z,1.78
2019-02-25T06:44:30.949Z,1.78
2019-02-25T06:45:31.372Z,1.67
2019-02-25T06:46:30.925Z,1.78
2019-02-25T06:47:30.904Z,1.73
2019-02-25T06:48:30.914Z,1.70
2019-02-25T06:49:30.885Z,1.73
2019-02-25T06:50:30.875Z,1.76
2019-02-25T06:51:30.863Z,1.73
2019-02-25T06:52:30.862Z,1.73
2019-02-25T06:53:30.838Z,1.73
2019-02-25T06:54:30.860Z,1.73
2019-02-25T06:55:30.815Z,1.87
2019-02-25T06:56:30.803Z,1.78
2019-02-25T06:57:30.806Z,1.91
2019-02-25T06:58:30.855Z,1.88
2019-02-25T06:59:30.773Z,1.85
2019-02-25T07:00:30.785Z,2.00
2019-02-25T07:01:30.750Z,1.94
2019-02-25T07:02:30.740Z,2.07
2019-02-25T07:03:30.734Z,1.99
2019-02-25T07:04:30.726Z,1.97
2019-02-25T07:05:30.749Z,2.04
2019-02-25T07:06:30.704Z,2.04
2019-02-25T07:07:30.716Z,1.95
2019-02-25T07:08:30.672Z,2.00
2019-02-25T07:09:30.707Z,2.00
2019-02-25T07:10:30.656Z,1.97
2019-02-25T07:11:30.663Z,2.06
2019-02-25T07:12:30.632Z,2.02
2019-02-25T07:13:30.624Z,2.07
2019-02-25T07:14:30.618Z,2.10
2019-02-25T07:15:30.601Z,2.13
2019-02-25T07:16:30.609Z,2.15
2019-02-25T07:17:30.575Z,2.14
2019-02-25T07:18:30.579Z,2.13
2019-02-25T07:19:30.573Z,2.11
2019-02-25T07:20:30.540Z,2.17
2019-02-25T07:21:30.529Z,2.13
2019-02-25T07:22:30.550Z,2.07
2019-02-25T07:23:30.511Z,2.18
2019-02-25T07:24:30.499Z,2.14
2019-02-25T07:25:30.517Z,2.20
2019-02-25T07:26:30.501Z,2.29
2019-02-25T07:27:30.486Z,2.24
2019-02-25T07:28:30.523Z,2.26
2019-02-25T07:29:30.445Z,2.29
2019-02-25T07:30:30.431Z,2.28
2019-02-25T07:31:30.429Z,2.31
2019-02-25T07:32:30.422Z,2.33
2019-02-25T07:33:30.420Z,2.33
2019-02-25T07:34:30.396Z,2.39
2019-02-25T07:35:30.387Z,2.38
2019-02-25T07:36:30.370Z,2.43
2019-02-25T07:37:30.357Z,2.43
2019-02-25T07:38:39.001Z,2.51
2019-02-25T07:39:31.357Z,2.49
2019-02-25T07:40:30.360Z,2.61
2019-02-25T07:41:30.309Z,2.60
2019-02-25T07:42:30.295Z,2.62
2019-02-25T07:43:30.296Z,2.69
2019-02-25T07:44:30.308Z,2.77
2019-02-25T07:45:30.264Z,2.83
2019-02-25T07:46:30.254Z,2.77
2019-02-25T07:47:30.249Z,2.87
2019-02-25T07:48:30.233Z,2.97
2019-02-25T07:49:30.226Z,2.95
2019-02-25T07:50:30.232Z,3.01
2019-02-25T07:51:30.207Z,2.98
2019-02-25T07:52:30.322Z,3.08
2019-02-25T07:53:30.218Z,3.08
2019-02-25T07:54:30.168Z,3.25
2019-02-25T07:55:30.189Z,3.25
2019-02-25T07:56:30.146Z,3.29
2019-02-25T07:57:30.131Z,3.26
2019-02-25T07:58:30.135Z,3.29
2019-02-25T07:59:30.117Z,3.37
2019-02-25T08:00:30.129Z,3.45
2019-02-25T08:01:30.137Z,3.45
2019-02-25T08:02:30.086Z,3.53
2019-02-25T08:03:30.071Z,3.63
2019-02-25T08:04:30.068Z,3.60
2019-02-25T08:05:30.050Z,3.78
2019-02-25T08:06:30.095Z,3.76
2019-02-25T08:07:30.060Z,3.81
2019-02-25T08:08:30.151Z,3.86
2019-02-25T08:09:30.009Z,3.95
2019-02-25T08:10:29.988Z,3.98
2019-02-25T08:11:30.005Z,4.02
2019-02-25T08:12:29.994Z,4.23
2019-02-25T08:13:29.965Z,4.17
2019-02-25T08:14:29.950Z,4.35
2019-02-25T08:15:29.934Z,4.48
2019-02-25T08:16:29.939Z,4.53
2019-02-25T08:17:29.914Z,4.58
2019-02-25T08:18:29.928Z,4.60
2019-02-25T08:19:29.911Z,4.78
2019-02-25T08:20:29.886Z,4.75
2019-02-25T08:21:29.875Z,4.86
2019-02-25T08:22:29.860Z,4.92
2019-02-25T08:23:29.848Z,5.11
2019-02-25T08:24:30.819Z,5.14
2019-02-25T08:25:29.865Z,5.20
2019-02-25T08:26:29.819Z,5.23
2019-02-25T08:27:29.808Z,5.35
2019-02-25T08:28:29.796Z,5.54
2019-02-25T08:29:29.780Z,5.61
2019-02-25T08:30:29.782Z,5.69
2019-02-25T08:31:29.799Z,5.79
2019-02-25T08:32:29.766Z,5.97
2019-02-25T08:33:29.753Z,5.93
2019-02-25T08:34:29.728Z,6.02
2019-02-25T08:35:29.844Z,6.09
2019-02-25T08:36:29.702Z,6.27
2019-02-25T08:37:29.718Z,6.26
2019-02-25T08:38:29.686Z,6.36
2019-02-25T08:39:29.678Z,6.51
2019-02-25T08:40:29.676Z,6.56
2019-02-25T08:41:29.645Z,6.67
2019-02-25T08:42:31.050Z,6.79
2019-02-25T08:43:29.641Z,6.84
2019-02-25T08:44:29.617Z,7.10
2019-02-25T08:45:29.602Z,7.11
2019-02-25T08:46:29.595Z,7.23
2019-02-25T08:47:29.607Z,7.24
2019-02-25T08:48:29.565Z,7.32
2019-02-25T08:49:29.562Z,7.40
2019-02-25T08:50:29.556Z,7.48
2019-02-25T08:51:29.660Z,7.47
2019-02-25T08:52:29.545Z,7.58
2019-02-25T08:53:29.974Z,7.72
2019-02-25T08:54:29.590Z,7.79
2019-02-25T08:55:29.491Z,7.94
2019-02-25T08:56:29.482Z,7.97
2019-02-25T08:57:29.474Z,8.10
2019-02-25T08:58:29.482Z,8.23
2019-02-25T08:59:29.445Z,8.28
2019-02-25T09:00:29.436Z,8.38
2019-02-25T09:01:29.422Z,8.38
2019-02-25T09:02:29.418Z,8.48
2019-02-25T09:03:29.405Z,8.63
2019-02-25T09:04:29.424Z,8.76
2019-02-25T09:05:29.374Z,8.87
2019-02-25T09:06:29.371Z,8.95
2019-02-25T09:07:30.165Z,9.02
2019-02-25T09:08:29.345Z,8.99
2019-02-25T09:09:29.363Z,9.08
2019-02-25T09:10:29.386Z,9.19
2019-02-25T09:11:29.313Z,9.18
2019-02-25T09:12:29.305Z,9.25
2019-02-25T09:13:29.282Z,9.37
2019-02-25T09:14:29.299Z,9.31
2019-02-25T09:15:30.177Z,9.34
2019-02-25T09:16:29.259Z,9.41
2019-02-25T09:17:29.246Z,9.41
2019-02-25T09:18:29.243Z,9.48
2019-02-25T09:19:29.221Z,9.48
2019-02-25T09:20:29.240Z,9.56
2019-02-25T09:21:31.784Z,9.58
2019-02-25T09:22:29.195Z,9.74
2019-02-25T09:23:29.179Z,9.72
2019-02-25T09:24:29.163Z,9.79
2019-02-25T09:25:29.174Z,9.87
2019-02-25T09:26:29.140Z,9.97
2019-02-25T09:27:29.152Z,9.99
2019-02-25T09:28:29.119Z,9.97
2019-02-25T09:29:29.113Z,10.09
2019-02-25T09:30:29.098Z,10.15
2019-02-25T09:31:30.181Z,10.13
2019-02-25T09:32:29.083Z,10.17
2019-02-25T09:33:29.095Z,10.37
2019-02-25T09:34:29.084Z,10.41
2019-02-25T09:35:29.062Z,10.46
2019-02-25T09:36:29.031Z,10.46
2019-02-25T09:37:29.028Z,10.42
2019-02-25T09:38:29.009Z,10.67
2019-02-25T09:39:29.030Z,10.63
2019-02-25T09:40:28.988Z,10.61
2019-02-25T09:41:30.260Z,10.75
2019-02-25T09:42:28.968Z,10.68
2019-02-25T09:43:28.958Z,10.69
2019-02-25T09:44:28.938Z,10.84
2019-02-25T09:45:28.953Z,10.78
2019-02-25T09:46:28.921Z,10.93
2019-02-25T09:47:28.998Z,10.90
2019-02-25T09:48:28.957Z,10.92
2019-02-25T09:49:28.886Z,11.02
2019-02-25T09:50:28.910Z,11.04
2019-02-25T09:51:28.875Z,11.11
2019-02-25T09:52:28.855Z,11.10
2019-02-25T09:53:28.847Z,11.17
2019-02-25T09:54:28.842Z,11.25
2019-02-25T09:55:28.845Z,11.17
2019-02-25T09:56:28.826Z,11.27
2019-02-25T09:57:28.798Z,11.29
2019-02-25T09:58:28.787Z,11.40
2019-02-25T09:59:28.775Z,11.40
2019-02-25T10:00:28.823Z,11.51
2019-02-25T10:01:28.766Z,11.55
2019-02-25T10:02:28.784Z,11.48
2019-02-25T10:03:28.728Z,11.60
2019-02-25T10:04:28.727Z,11.63
2019-02-25T10:05:28.711Z,11.72
2019-02-25T10:06:28.701Z,11.70
2019-02-25T10:07:28.707Z,11.83
2019-02-25T10:08:28.681Z,11.81
2019-02-25T10:09:30.038Z,11.84
2019-02-25T10:10:28.686Z,11.94
2019-02-25T10:11:28.767Z,11.91
2019-02-25T10:12:28.656Z,12.06
2019-02-25T10:13:28.624Z,12.07
2019-02-25T10:14:28.620Z,12.17
2019-02-25T10:15:28.595Z,12.31
2019-02-25T10:16:28.623Z,12.22
2019-02-25T10:17:28.597Z,12.32
2019-02-25T10:18:28.562Z,12.39
2019-02-25T10:19:28.546Z,12.46
2019-02-25T10:20:28.549Z,12.45
2019-02-25T10:21:28.526Z,12.55
2019-02-25T10:22:28.519Z,12.61
2019-02-25T10:23:28.523Z,12.54
2019-02-25T10:24:28.509Z,12.67
2019-02-25T10:25:28.499Z,12.68
2019-02-25T10:26:28.473Z,12.73
2019-02-25T10:27:28.623Z,12.80
2019-02-25T10:28:28.469Z,12.91
2019-02-25T10:29:28.439Z,12.97
2019-02-25T10:30:28.453Z,13.03
2019-02-25T10:31:28.426Z,13.12
2019-02-25T10:32:30.184Z,13.03
2019-02-25T10:33:28.415Z,13.09
2019-02-25T10:34:28.387Z,13.05
2019-02-25T10:35:28.375Z,13.09
2019-02-25T10:36:28.358Z,13.16
2019-02-25T10:37:28.365Z,13.13
2019-02-25T10:38:28.365Z,13.16
2019-02-25T10:39:28.352Z,13.22
2019-02-25T10:40:28.321Z,13.27
2019-02-25T10:41:28.303Z,13.28
2019-02-25T10:42:29.432Z,13.42
2019-02-25T10:43:29.629Z,13.42
2019-02-25T10:44:29.733Z,13.46
2019-02-25T10:45:28.260Z,13.42
2019-02-25T10:46:28.326Z,13.52
2019-02-25T10:47:28.239Z,13.53
2019-02-25T10:48:28.228Z,13.57
2019-02-25T10:49:29.360Z,13.62
2019-02-25T10:50:28.807Z,13.70
2019-02-25T10:51:28.215Z,13.70
2019-02-25T10:52:28.177Z,13.70
2019-02-25T10:53:28.169Z,13.75
2019-02-25T10:54:28.152Z,13.70
2019-02-25T10:55:28.173Z,13.79
2019-02-25T10:56:28.135Z,13.75
2019-02-25T10:57:29.246Z,13.79
2019-02-25T10:58:29.449Z,13.96
2019-02-25T10:59:29.761Z,13.90
2019-02-25T11:00:28.096Z,13.96
2019-02-25T11:01:28.101Z,14.00
2019-02-25T11:02:28.068Z,14.00
2019-02-25T11:03:28.051Z,14.03
2019-02-25T11:04:28.043Z,13.99
2019-02-25T11:05:30.517Z,14.05
2019-02-25T11:06:29.046Z,14.12
2019-02-25T11:07:28.137Z,14.10
2019-02-25T11:08:28.003Z,14.17
2019-02-25T11:09:27.988Z,14.22
2019-02-25T11:10:28.019Z,14.25
2019-02-25T11:11:27.973Z,14.30
2019-02-25T11:12:29.957Z,14.25
2019-02-25T11:13:29.674Z,14.35
2019-02-25T11:14:27.941Z,14.36
2019-02-25T11:15:27.949Z,14.33
2019-02-25T11:16:27.912Z,14.36
2019-02-25T11:17:27.902Z,14.35
2019-02-25T11:18:28.460Z,14.47
2019-02-25T11:19:28.560Z,14.44
2019-02-25T11:20:29.266Z,14.45
2019-02-25T11:21:27.877Z,14.55
2019-02-25T11:22:27.840Z,14.66
2019-02-25T11:23:27.836Z,14.68
2019-02-25T11:24:27.820Z,14.62
2019-02-25T11:25:28.526Z,14.73
2019-02-25T11:26:28.870Z,14.79
2019-02-25T11:27:28.680Z,14.78
2019-02-25T11:28:27.784Z,14.79
2019-02-25T11:29:27.784Z,14.85
2019-02-25T11:30:27.780Z,14.88
2019-02-25T11:31:29.147Z,14.78
2019-02-25T11:32:28.004Z,14.96
2019-02-25T11:33:29.646Z,14.94
2019-02-25T11:34:29.333Z,14.96
2019-02-25T11:35:27.705Z,14.99
2019-02-25T11:36:27.689Z,14.96
2019-02-25T11:37:27.682Z,15.07
2019-02-25T11:38:28.790Z,15.06
2019-02-25T11:39:29.721Z,15.04
2019-02-25T11:40:28.943Z,15.10
2019-02-25T11:41:27.628Z,15.15
2019-02-25T11:42:27.617Z,15.21
2019-02-25T11:43:27.668Z,15.27
2019-02-25T11:44:31.198Z,15.22
2019-02-25T11:45:27.594Z,15.31
2019-02-25T11:46:27.573Z,15.21
2019-02-25T11:47:27.562Z,15.33
2019-02-25T11:48:27.568Z,15.27
2019-02-25T11:49:27.554Z,15.35
2019-02-25T11:50:27.528Z,15.39
2019-02-25T11:51:27.550Z,15.42
2019-02-25T11:52:27.505Z,15.42
2019-02-25T11:53:27.499Z,15.40
2019-02-25T11:54:27.489Z,15.47
2019-02-25T11:55:27.492Z,15.51
2019-02-25T11:56:27.466Z,15.47
2019-02-25T11:57:27.473Z,15.54
2019-02-25T11:58:27.440Z,15.52
2019-02-25T11:59:27.558Z,15.57
2019-02-25T12:00:27.422Z,15.51
2019-02-25T12:01:27.414Z,15.58
2019-02-25T12:02:27.469Z,15.61
2019-02-25T12:03:27.386Z,15.54
2019-02-25T12:04:27.368Z,15.54
2019-02-25T12:05:27.399Z,15.54
2019-02-25T12:06:27.354Z,15.72
2019-02-25T12:07:27.370Z,15.59
2019-02-25T12:08:27.359Z,15.58
2019-02-25T12:09:27.316Z,15.65
2019-02-25T12:10:27.307Z,15.65
2019-02-25T12:11:27.315Z,15.65
2019-02-25T12:12:27.280Z,15.68
2019-02-25T12:13:27.296Z,15.72
2019-02-25T12:14:27.270Z,15.72
2019-02-25T12:15:27.338Z,15.72
2019-02-25T12:16:27.279Z,15.77
2019-02-25T12:17:27.252Z,15.73
2019-02-25T12:18:27.213Z,15.80
2019-02-25T12:19:27.201Z,15.76
2019-02-25T12:20:27.188Z,15.88
2019-02-25T12:21:27.208Z,15.95
2019-02-25T12:22:27.209Z,15.95
2019-02-25T12:23:27.157Z,16.08
2019-02-25T12:24:27.145Z,16.16
2019-02-25T12:25:27.134Z,16.41
2019-02-25T12:26:27.205Z,16.57
2019-02-25T12:27:27.160Z,16.84
2019-02-25T12:28:27.129Z,17.02
2019-02-25T12:29:27.118Z,17.29
2019-02-25T12:30:27.140Z,17.23
2019-02-25T12:31:27.069Z,17.14
2019-02-25T12:32:27.076Z,17.09
2019-02-25T12:33:27.067Z,17.08
2019-02-25T12:34:27.040Z,17.04
2019-02-25T12:35:27.029Z,17.12
2019-02-25T12:36:27.016Z,17.30
2019-02-25T12:37:27.002Z,17.56
2019-02-25T12:38:27.011Z,17.97
2019-02-25T12:39:27.000Z,18.43
2019-02-25T12:40:27.783Z,18.83
2019-02-25T12:41:27.429Z,19.30
2019-02-25T12:42:26.950Z,19.55
2019-02-25T12:43:26.941Z,19.86
2019-02-25T12:44:26.931Z,20.06
2019-02-25T12:45:27.044Z,20.28
2019-02-25T12:46:26.908Z,20.52
2019-02-25T12:47:26.889Z,20.80
2019-02-25T12:48:26.878Z,20.97
2019-02-25T12:49:26.899Z,21.03
2019-02-25T12:50:26.850Z,21.05
2019-02-25T12:51:26.886Z,21.09
2019-02-25T12:52:26.837Z,21.11
2019-02-25T12:53:26.954Z,21.09
2019-02-25T12:54:26.839Z,21.07
2019-02-25T12:55:26.800Z,21.11
2019-02-25T12:56:26.789Z,21.14
2019-02-25T12:57:26.781Z,20.97
2019-02-25T12:58:26.793Z,20.96
2019-02-25T12:59:26.751Z,20.81
2019-02-25T13:00:26.774Z,20.82
2019-02-25T13:01:26.730Z,20.84
2019-02-25T13:02:26.723Z,20.77
2019-02-25T13:03:26.724Z,20.81
2019-02-25T13:04:26.702Z,20.88
2019-02-25T13:05:26.695Z,20.93
2019-02-25T13:06:26.705Z,20.84
2019-02-25T13:07:26.667Z,20.77
2019-02-25T13:08:26.661Z,20.80
2019-02-25T13:09:26.717Z,20.92
2019-02-25T13:10:26.665Z,20.87
2019-02-25T13:11:26.627Z,20.95